Líbí se Vám tento web? Budeme velmi rádi, pokud přidáte hodnocení +1

Seznam meteostanic a jejich METAR

Vyhledat místa podle abecedy:
A B C D E F G H I J K L M N O P Q R S T U V W X Y Z

Filtrovat:

ID stanice:
a/nebo
Název místa (fulltext):
 
Místo (ID)Naposledy načteno 
Červená - Opava (Cervena/uL) 17.01.2018 21:00 UTC Zobrazit data
Místo: Červená - Opava
Teplota: -3 °C (pocitová: -14 °C)
Vítr: 6 m/s z(e) 270°
Počasí: oblačno
Dohlednost: 30 km
Zákl. oblačnosti: 3/8 300 m
Vlhkost: 93%
České Budějovice (C.Budej/po) 17.01.2018 21:00 UTC Zobrazit data
Místo: České Budějovice
Teplota: 1 °C (pocitová: -6 °C)
Vítr: 3 m/s z(e) 230°
Počasí: skoro zataženo
Dohlednost: 35 km
Zákl. oblačnosti: 1/8 1140 m;5/8 1500 m
Vlhkost: 70%
Cheb (Cheb) 17.01.2018 21:00 UTC Zobrazit data
Místo: Cheb
Teplota: 0 °C (pocitová: -8.4 °C)
Vítr: 4 m/s z(e) 270°
Počasí: zataženo
Dohlednost: 20 km
Zákl. oblačnosti: 1/8 510 m;3/8 690 m
Vlhkost: 87%
Chotusice - Čáslav (Caslav) 17.01.2018 21:00 UTC Zobrazit data
Místo: Chotusice - Čáslav
Teplota: 0 °C (pocitová: -9.2 °C)
Vítr: 5 m/s z(e) 240°
Počasí: zataženo
Dohlednost: 10 km
Zákl. oblačnosti: 4/8 510 m;8/8 1110 m
Vlhkost: 100%
Churáňov (Churanov) 17.01.2018 20:00 UTC Zobrazit data
Místo: Churáňov
Teplota: -4 °C (pocitová: -15.4 °C)
Vítr: 6 m/s z(e) 260°
Počasí: sněží
Dohlednost: 400 m
Zákl. oblačnosti: 8/8 150 m
Vlhkost: 100%
Cairo (HECA) 17.01.2018 21:00 UTC Zobrazit METAR
HECA 172100Z 19003KT CAVOK 17/09 Q1017 NOSIG
Canberra (YSCB) 17.01.2018 21:00 UTC Zobrazit METAR
YSCB 172100Z 11003KT CAVOK 15/09 Q1021 NOSIG
Caracas (SVMP) Zatím nenačteno  
Cayenne (SOCA) 17.01.2018 21:00 UTC Zobrazit METAR
SOCA 172100Z AUTO 04007KT 9999 BKN021 BKN031 BKN048 27/24 Q1010 TEMPO 1200 TSRA FEW012CB
Charlotte Amalie (TIST) 17.01.2018 20:51 UTC Zobrazit METAR
TIST 172051Z AUTO 09008KT 10SM SCT027 SCT033 27/22 A2999 RMK AO2 $
Chisinau (LUKK) 17.01.2018 15:00 UTC Zobrazit METAR
LUKK 171500Z VRB02KT 4600 -RA BR OVC032 00/M02 Q0997 R26/290199 BECMG 3000 -FZRA BR
Colombo (VCBI) 17.01.2018 18:10 UTC Zobrazit METAR
VCBI 171810Z 03006KT 9000 NSC 22/16 Q1011 NOSIG
Conakry (GUCY) 17.01.2018 16:00 UTC Zobrazit METAR
GUCY 171600Z 27008KT 5000 HZ NSC 31/20 Q1010 NOSIG
Constanta (LRCK) 17.01.2018 21:00 UTC Zobrazit METAR
LRCK 172100Z 17011KT CAVOK 07/06 Q0990 R18/29//95 NOSIG
Constantine (DABC) 17.01.2018 21:00 UTC Zobrazit METAR
DABC 172100Z 15003KT 100V180 9999 SCT026 08/05 Q1025
Copenhagen (EKCH) 17.01.2018 20:50 UTC Zobrazit METAR
EKCH 172050Z 25006KT 9999 FEW012 BKN015 01/00 Q0994 R04L/310153 R04R/310163 R12/310162 TEMPO BKN010
Cork (EICK) 17.01.2018 21:00 UTC Zobrazit METAR
EICK 172100Z 27027G41KT 5000 -RA BKN008 BKN018 BKN032 11/10 Q0995 NOSIG
Cotonou (DBBB) 17.01.2018 21:00 UTC Zobrazit METAR
DBBB 172100Z 21009KT 9000 FEW011 28/25 Q1011 NOSIG
Curacao Island (TNCC) 17.01.2018 21:00 UTC Zobrazit METAR
TNCC 172100Z 10012KT 9999 FEW020 28/23 Q1012 NOSIG
Reklama

Počasí na Váš email

Emaily jsou bez reklamy a bez spamu



Odhlásit newsletter

Reklama


Lunární kalendář

  • 24.01.
  • 31.01.
  • 07.02.
  • 15.02.



Jsme na Google Plus

Reklama
Povinné ručení



Může Vás také zajímat:


Reklama